NOAA Web Site Link Tides and Currents Home Page Transparent placeholder image

PORTS® Data Listing: 9414750 Alameda, CA

CO-OPS RAW PORTS DATA

************************      PRELIMINARY DATA      ************************** 

     THIS RAW DATA HAS NOT BEEN SUBJECT TO THE NATIONAL OCEAN SERVICE'S        
     QUALITY CONTROL OR QUALITY ASSURANCE PROCEDURES AND DOES NOT MEET         
     THE CRITERIA AND STANDARDS OF OFFICIAL NATIONAL OCEAN SERVICE             
     DATA.  IT IS RELEASED FOR LIMITED PUBLIC USE AS PRELIMINARY DATA TO       
     BE USED ONLY WITH APPROPRIATE CAUTION.                                    

************************      PRELIMINARY DATA      ************************** 


       CD   -   Calendar date
       T    -   Time
       TZ   -   Timezone
       PW   -   Predicted water level (feet above MLLW)
       OW   -   Observed water level (feet above MLLW)
       WS   -   Wind speed (knots)
       WD   -   Wind direction (degrees true)
       WG   -   Wind gust (knots)
       AT   -   Air temperature (degrees farenheit)
       WT   -   Water temperature (degrees farenheit)
       AP   -   Air pressure (millibars)
       SA   -   Salinty (PSU - Practical Salinity Units)
       SG   -   Specific gravity
       RH   -   Relative humidity
       AG   -   Air gap (feet)
       VI   -   Visibility (nautical miles)

       ** NOTE **
       A variable that has its data fields filled with "9"s, indicates that
       data was not collected for that sample period.
       **********


STATION NAME: Alameda (9414750)
****************************************************************************************************
    CD       T    TZ    PW     OW    WS   WD   WG    AT    WT    AP    SA    SG     RH    AG   VI
****************************************************************************************************
2019/06/24 06:30 PDT    4.43   4.88    3  283    4  57.9  69.1 1012.6 -9.9 -9.999 -99.9 -99.99 -9.99
2019/06/24 06:36 PDT    4.37   4.80    3  284    4  57.7  69.1 1012.5 -9.9 -9.999 -99.9 -99.99 -9.99
2019/06/24 06:42 PDT    4.30   4.75    3  288    4  57.7  69.1 1012.5 -9.9 -9.999 -99.9 -99.99 -9.99
2019/06/24 06:48 PDT    4.23   4.69    2  336    4  58.1  69.1 1012.5 -9.9 -9.999 -99.9 -99.99 -9.99
2019/06/24 06:54 PDT    4.16   4.59    1  330    3  58.1  69.1 1012.5 -9.9 -9.999 -99.9 -99.99 -9.99
2019/06/24 07:00 PDT    4.08   4.49    2  334    4  58.3  69.1 1012.5 -9.9 -9.999 -99.9 -99.99 -9.99
2019/06/24 07:06 PDT    4.00   4.44    2  320    4  58.3  69.1 1012.5 -9.9 -9.999 -99.9 -99.99 -9.99
2019/06/24 07:12 PDT    3.92   4.40    1  352    3  58.5  69.1 1012.6 -9.9 -9.999 -99.9 -99.99 -9.99
2019/06/24 07:18 PDT    3.83   4.28    1  308    3  58.3  69.1 1012.6 -9.9 -9.999 -99.9 -99.99 -9.99
2019/06/24 07:24 PDT    3.74   4.16    2  289    3  58.1  69.1 1012.6 -9.9 -9.999 -99.9 -99.99 -9.99
2019/06/24 07:30 PDT    3.65   4.07    2  320    3  58.3  69.1 1012.7 -9.9 -9.999 -99.9 -99.99 -9.99
2019/06/24 07:36 PDT    3.55   4.00    2  273    4  58.1  68.9 1012.7 -9.9 -9.999 -99.9 -99.99 -9.99
2019/06/24 07:42 PDT    3.46   3.90    1  305    3  58.5  68.9 1012.8 -9.9 -9.999 -99.9 -99.99 -9.99
2019/06/24 07:48 PDT    3.36   3.82    3  271    4  58.5  68.9 1012.9 -9.9 -9.999 -99.9 -99.99 -9.99
2019/06/24 07:54 PDT    3.26   3.74    2  307    4  58.6  68.9 1012.9 -9.9 -9.999 -99.9 -99.99 -9.99
2019/06/24 08:00 PDT    3.15   3.64    2  284    4  58.6  68.9 1012.9 -9.9 -9.999 -99.9 -99.99 -9.99
2019/06/24 08:06 PDT    3.05   3.55    2  332    5  59.2  68.9 1012.9 -9.9 -9.999 -99.9 -99.99 -9.99
2019/06/24 08:12 PDT    2.95   3.47    1  106    5  59.4  68.9 1012.9 -9.9 -9.999 -99.9 -99.99 -9.99
2019/06/24 08:18 PDT    2.84   3.39    1  139    3  59.4  68.9 1013.0 -9.9 -9.999 -99.9 -99.99 -9.99
2019/06/24 08:24 PDT    2.74   3.29    2  104    4  59.2  68.9 1013.0 -9.9 -9.999 -99.9 -99.99 -9.99
2019/06/24 08:30 PDT    2.64   3.16    2  106    4  59.2  68.9 1013.0 -9.9 -9.999 -99.9 -99.99 -9.99
2019/06/24 08:36 PDT    2.53   3.05    2    3    3  59.2  69.1 1013.0 -9.9 -9.999 -99.9 -99.99 -9.99
2019/06/24 08:42 PDT    2.43   2.97    1  310    5  59.4  68.9 1013.0 -9.9 -9.999 -99.9 -99.99 -9.99
2019/06/24 08:48 PDT    2.33   2.88    1  357    2  59.5  68.9 1013.0 -9.9 -9.999 -99.9 -99.99 -9.99
2019/06/24 08:54 PDT    2.23   2.76    1  313    3  59.5  68.9 1013.0 -9.9 -9.999 -99.9 -99.99 -9.99
2019/06/24 09:00 PDT    2.14   2.64    1  283    3  60.1  68.9 1013.0 -9.9 -9.999 -99.9 -99.99 -9.99
2019/06/24 09:06 PDT    2.04   2.55    2  267    4  60.1  68.9 1013.1 -9.9 -9.999 -99.9 -99.99 -9.99
2019/06/24 09:12 PDT    1.95   2.47    3  278    4  60.1  68.9 1013.2 -9.9 -9.999 -99.9 -99.99 -9.99
2019/06/24 09:18 PDT    1.86   2.38    2  281    4  60.3  68.7 1013.0 -9.9 -9.999 -99.9 -99.99 -9.99
2019/06/24 09:24 PDT    1.77   2.29    2  345    4  60.8  68.7 1013.0 -9.9 -9.999 -99.9 -99.99 -9.99
2019/06/24 09:30 PDT    1.68   2.23    3  356    4  61.0  68.7 1013.1 -9.9 -9.999 -99.9 -99.99 -9.99
2019/06/24 09:36 PDT    1.60   2.15    4  348    5  61.3  68.7 1013.1 -9.9 -9.999 -99.9 -99.99 -9.99
2019/06/24 09:42 PDT    1.52   2.06    2  326    4  61.3  68.7 1013.1 -9.9 -9.999 -99.9 -99.99 -9.99
2019/06/24 09:48 PDT    1.45   1.99    2  303    4  62.1  68.7 1013.1 -9.9 -9.999 -99.9 -99.99 -9.99
2019/06/24 09:54 PDT    1.37   1.95    2  282    4  61.9  68.7 1013.1 -9.9 -9.999 -99.9 -99.99 -9.99
2019/06/24 10:00 PDT    1.31   1.90    2  270    5  62.1  68.7 1013.0 -9.9 -9.999 -99.9 -99.99 -9.99
2019/06/24 10:06 PDT    1.24   1.83    4  315    5  62.1  68.7 1013.0 -9.9 -9.999 -99.9 -99.99 -9.99
2019/06/24 10:12 PDT    1.18   1.75    4  294    5  62.6  68.7 1013.0 -9.9 -9.999 -99.9 -99.99 -9.99
2019/06/24 10:18 PDT    1.12   1.72    5  277    7  62.2  68.5 1013.1 -9.9 -9.999 -99.9 -99.99 -9.99
2019/06/24 10:24 PDT    1.07   1.69    4  275    6  62.4  68.5 1013.0 -9.9 -9.999 -99.9 -99.99 -9.99
2019/06/24 10:30 PDT    1.02   1.66    4  282    6  62.4  68.5 1013.0 -9.9 -9.999 -99.9 -99.99 -9.99
2019/06/24 10:36 PDT    0.97   1.62    4  281    6  62.1  68.5 1013.0 -9.9 -9.999 -99.9 -99.99 -9.99
2019/06/24 10:42 PDT    0.93   1.55    3  312    5  62.8  68.5 1012.9 -9.9 -9.999 -99.9 -99.99 -9.99
2019/06/24 10:48 PDT    0.89   1.50    4  285    5  63.1  68.7 1012.9 -9.9 -9.999 -99.9 -99.99 -9.99
2019/06/24 10:54 PDT    0.85   1.47    4  280    5  63.5  68.5 1012.9 -9.9 -9.999 -99.9 -99.99 -9.99
2019/06/24 11:00 PDT    0.82   1.46    3  288    5  63.9  68.5 1012.9 -9.9 -9.999 -99.9 -99.99 -9.99
2019/06/24 11:06 PDT    0.79   1.43    4  348    6  63.9  68.5 1012.9 -9.9 -9.999 -99.9 -99.99 -9.99
2019/06/24 11:12 PDT    0.77   1.43    3  326    5  64.6  68.5 1012.9 -9.9 -9.999 -99.9 -99.99 -9.99
2019/06/24 11:18 PDT    0.75   1.43    4  353    6  64.6  68.5 1012.9 -9.9 -9.999 -99.9 -99.99 -9.99
2019/06/24 11:24 PDT    0.74   1.41    2  315    5  65.1  68.5 1012.9 -9.9 -9.999 -99.9 -99.99 -9.99
2019/06/24 11:30 PDT    0.73   1.37    2  307    5  64.9  68.5 1012.8 -9.9 -9.999 -99.9 -99.99 -9.99
2019/06/24 11:36 PDT    0.72   1.36    3  309    5  64.6  68.7 1012.8 -9.9 -9.999 -99.9 -99.99 -9.99
2019/06/24 11:42 PDT    0.72   1.36    3  320    5  65.3  68.7 1012.8 -9.9 -9.999 -99.9 -99.99 -9.99
2019/06/24 11:48 PDT    0.72   1.38    4  280    5  64.9  68.7 1012.8 -9.9 -9.999 -99.9 -99.99 -9.99
2019/06/24 11:54 PDT    0.72   1.42    4  313    6  65.7  68.7 1012.8 -9.9 -9.999 -99.9 -99.99 -9.99
2019/06/24 12:00 PDT    0.74   1.43    4  330    6  65.8  68.7 1012.7 -9.9 -9.999 -99.9 -99.99 -9.99
2019/06/24 12:06 PDT    0.75   1.44    3  329    6  65.8  68.7 1012.7 -9.9 -9.999 -99.9 -99.99 -9.99
2019/06/24 12:12 PDT    0.77   1.43    4  284    6  66.0  68.7 1012.7 -9.9 -9.999 -99.9 -99.99 -9.99
2019/06/24 12:18 PDT    0.79   1.46    4  269    6  65.1  68.7 1012.7 -9.9 -9.999 -99.9 -99.99 -9.99
2019/06/24 12:24 PDT    0.82   1.49    5  277    7  65.5  68.7 1012.6 -9.9 -9.999 -99.9 -99.99 -9.99
2019/06/24 12:30 PDT    0.86   1.54    5  273    7  65.7  68.9 1012.6 -9.9 -9.999 -99.9 -99.99 -9.99
2019/06/24 12:36 PDT    0.90   1.58    5  267    7  65.7  68.9 1012.6 -9.9 -9.999 -99.9 -99.99 -9.99
2019/06/24 12:42 PDT    0.94   1.61    3  278    7  66.4  68.9 1012.5 -9.9 -9.999 -99.9 -99.99 -9.99
2019/06/24 12:48 PDT    0.99   1.66    4  298    7  67.1  68.9 1012.5 -9.9 -9.999 -99.9 -99.99 -9.99
2019/06/24 12:54 PDT    1.04   1.72    4  311    7  66.9  68.9 1012.5 -9.9 -9.999 -99.9 -99.99 -9.99
2019/06/24 13:00 PDT    1.09   1.77    5  277    7  66.6  68.9 1012.4 -9.9 -9.999 -99.9 -99.99 -9.99
2019/06/24 13:06 PDT    1.15   1.84    5  279    7  66.7  68.9 1012.5 -9.9 -9.999 -99.9 -99.99 -9.99
2019/06/24 13:12 PDT    1.22   1.92    4  286    8  67.1  68.9 1012.5 -9.9 -9.999 -99.9 -99.99 -9.99
2019/06/24 13:18 PDT    1.29   1.99    5  268    6  66.9  68.9 1012.5 -9.9 -9.999 -99.9 -99.99 -9.99
2019/06/24 13:24 PDT    1.36   2.07    4  285    6  67.6  68.9 1012.3 -9.9 -9.999 -99.9 -99.99 -9.99
2019/06/24 13:30 PDT    1.44   2.15    6  277    7  67.3  69.1 1012.4 -9.9 -9.999 -99.9 -99.99 -9.99
2019/06/24 13:36 PDT    1.52   2.23    8  277   10  66.4  69.1 1012.4 -9.9 -9.999 -99.9 -99.99 -9.99
2019/06/24 13:42 PDT    1.60   2.29    8  276   10  66.0  69.1 1012.3 -9.9 -9.999 -99.9 -99.99 -9.99
2019/06/24 13:48 PDT    1.69   2.33    7  284    9  66.0  69.1 1012.2 -9.9 -9.999 -99.9 -99.99 -9.99
2019/06/24 13:54 PDT    1.78   2.42    8  278    9  65.7  69.1 1012.2 -9.9 -9.999 -99.9 -99.99 -9.99
2019/06/24 14:00 PDT    1.88   2.54    7  278   10  65.7  69.3 1012.1 -9.9 -9.999 -99.9 -99.99 -9.99
2019/06/24 14:06 PDT    1.97   2.61    7  278   10  65.7  69.3 1012.1 -9.9 -9.999 -99.9 -99.99 -9.99
2019/06/24 14:12 PDT    2.07   2.68    7  280    9  65.8  69.4 1012.1 -9.9 -9.999 -99.9 -99.99 -9.99
2019/06/24 14:18 PDT    2.17   2.76    7  279    9  65.8  69.4 1012.1 -9.9 -9.999 -99.9 -99.99 -9.99
2019/06/24 14:24 PDT    2.28   2.88    7  282    9  65.8  69.4 1012.0 -9.9 -9.999 -99.9 -99.99 -9.99
2019/06/24 14:30 PDT    2.38   2.98    6  277    8  66.2  69.6 1011.9 -9.9 -9.999 -99.9 -99.99 -9.99
2019/06/24 14:36 PDT    2.49   3.05    6  280    8  66.2  69.6 1011.9 -9.9 -9.999 -99.9 -99.99 -9.99
2019/06/24 14:42 PDT    2.60   3.16    6  274    7  66.4  69.6 1011.9 -9.9 -9.999 -99.9 -99.99 -9.99
2019/06/24 14:48 PDT    2.71   3.27    5  269    7  66.2  69.8 1011.8 -9.9 -9.999 -99.9 -99.99 -9.99
2019/06/24 14:54 PDT    2.81   3.36    7  272    8  66.2  69.8 1011.8 -9.9 -9.999 -99.9 -99.99 -9.99
2019/06/24 15:00 PDT    2.92   3.43    6  273    8  66.0  70.0 1011.7 -9.9 -9.999 -99.9 -99.99 -9.99
2019/06/24 15:06 PDT    3.03   3.54    6  276    9  66.0  70.0 1011.7 -9.9 -9.999 -99.9 -99.99 -9.99
2019/06/24 15:12 PDT    3.14   3.64    7  268    8  65.7  70.0 1011.7 -9.9 -9.999 -99.9 -99.99 -9.99
2019/06/24 15:18 PDT    3.25   3.72    7  279    9  65.8  70.2 1011.7 -9.9 -9.999 -99.9 -99.99 -9.99
2019/06/24 15:24 PDT    3.36   3.81    6  275    8  65.8  70.3 1011.6 -9.9 -9.999 -99.9 -99.99 -9.99
2019/06/24 15:30 PDT    3.47   3.92    7  266   11  65.7  70.3 1011.5 -9.9 -9.999 -99.9 -99.99 -9.99
2019/06/24 15:36 PDT    3.57   4.01    9  256   11  64.9  70.3 1011.5 -9.9 -9.999 -99.9 -99.99 -9.99
2019/06/24 15:42 PDT    3.68   4.12    9  265   12  65.3  70.3 1011.5 -9.9 -9.999 -99.9 -99.99 -9.99
2019/06/24 15:48 PDT    3.78   4.20   11  261   13  64.9  70.3 1011.5 -9.9 -9.999 -99.9 -99.99 -9.99
2019/06/24 15:54 PDT    3.89   4.28   10  262   12  64.4  70.3 1011.4 -9.9 -9.999 -99.9 -99.99 -9.99
2019/06/24 16:00 PDT    3.99   4.37   10  261   12  64.4  70.3 1011.4 -9.9 -9.999 -99.9 -99.99 -9.99
2019/06/24 16:06 PDT    4.09   4.47   10  258   13  64.6  70.3 1011.4 -9.9 -9.999 -99.9 -99.99 -9.99
2019/06/24 16:12 PDT    4.18   4.58   10  252   12  63.9  70.5 1011.4 -9.9 -9.999 -99.9 -99.99 -9.99
2019/06/24 16:18 PDT    4.28   4.69   11  259   13  63.9  70.5 1011.4 -9.9 -9.999 -99.9 -99.99 -9.99
2019/06/24 16:24 PDT    4.37   4.77   10  252   13  63.3  70.7 1011.3 -9.9 -9.999 -99.9 -99.99 -9.99
2019/06/24 16:30 PDT    4.46   4.84   10  253   13  63.5  70.5 1011.4 -9.9 -9.999 -99.9 -99.99 -9.99
2019/06/24 16:36 PDT    4.55   4.94   10  255   13  63.5  70.5 1011.5 -9.9 -9.999 -99.9 -99.99 -9.99
2019/06/24 16:42 PDT    4.64   5.04    8  260   12  63.7  70.7 1011.4 -9.9 -9.999 -99.9 -99.99 -9.99
2019/06/24 16:48 PDT    4.72   5.14   10  261   13  63.7  70.7 1011.3 -9.9 -9.999 -99.9 -99.99 -9.99
2019/06/24 16:54 PDT    4.80   5.23   10  252   12  62.6  70.7 1011.3 -9.9 -9.999 -99.9 -99.99 -9.99
2019/06/24 17:00 PDT    4.88   5.28   10  256   12  62.8  70.3 1011.3 -9.9 -9.999 -99.9 -99.99 -9.99
2019/06/24 17:06 PDT    4.96   5.34   10  252   12  62.6  70.3 1011.3 -9.9 -9.999 -99.9 -99.99 -9.99
2019/06/24 17:12 PDT    5.03   5.42   10  251   12  62.2  70.3 1011.2 -9.9 -9.999 -99.9 -99.99 -9.99
2019/06/24 17:18 PDT    5.10   5.49    9  250   12  62.6  70.3 1011.1 -9.9 -9.999 -99.9 -99.99 -9.99
2019/06/24 17:24 PDT    5.16   5.53    9  254   12  62.6  70.3 1011.2 -9.9 -9.999 -99.9 -99.99 -9.99
2019/06/24 17:30 PDT    5.23   5.59    7  259   10  63.1  70.3 1011.1 -9.9 -9.999 -99.9 -99.99 -9.99
2019/06/24 17:36 PDT    5.28   5.65    8  254   11  63.0  70.2 1011.1 -9.9 -9.999 -99.9 -99.99 -9.99
2019/06/24 17:42 PDT    5.34   5.70    6  270    9  63.5  70.0 1011.0 -9.9 -9.999 -99.9 -99.99 -9.99
2019/06/24 17:48 PDT    5.39   5.77    7  258    8  63.3  70.0 1011.0 -9.9 -9.999 -99.9 -99.99 -9.99
2019/06/24 17:54 PDT    5.44   5.83    4  281    7  63.5  70.0 1011.0 -9.9 -9.999 -99.9 -99.99 -9.99
2019/06/24 18:00 PDT    5.48   5.86    5  264    7  63.3  70.0 1010.9 -9.9 -9.999 -99.9 -99.99 -9.99
2019/06/24 18:06 PDT    5.52   5.89    5  284    6  63.5  70.0 1010.9 -9.9 -9.999 -99.9 -99.99 -9.99
2019/06/24 18:12 PDT    5.56   5.95    6  280    9  63.3  70.0 1010.9 -9.9 -9.999 -99.9 -99.99 -9.99
2019/06/24 18:18 PDT    5.59   6.02    7  287   10  63.0  70.0 1010.9 -9.9 -9.999 -99.9 -99.99 -9.99
2019/06/24 18:24 PDT    5.61   6.07    7  281   10  62.6  69.8 1010.9 -9.9 -9.999 -99.9 -99.99 -9.99
2019/06/24 18:30 PDT    5.63   6.08    6  283    9  62.8  69.8 1010.8 -9.9 -9.999 -99.9 -99.99 -9.99
2019/06/24 18:36 PDT    5.65   6.08    6  283    9  62.8  69.8 1010.8 -9.9 -9.999 -99.9 -99.99 -9.99
2019/06/24 18:42 PDT    5.66   6.10    8  282   10  62.2  69.6 1010.8 -9.9 -9.999 -99.9 -99.99 -9.99
2019/06/24 18:48 PDT    5.67   6.11    8  284   11  62.4  69.4 1010.9 -9.9 -9.999 -99.9 -99.99 -9.99
2019/06/24 18:54 PDT    5.67   6.13    9  280   11  62.2  69.1 1010.8 -9.9 -9.999 -99.9 -99.99 -9.99
2019/06/24 19:00 PDT    5.66   6.10    7  281   12  61.9  68.7 1010.8 -9.9 -9.999 -99.9 -99.99 -9.99
2019/06/24 19:06 PDT    5.65   6.11    9  284   10  61.2  68.5 1010.9 -9.9 -9.999 -99.9 -99.99 -9.99
2019/06/24 19:12 PDT    5.64   6.10    7  278    9  61.7  68.5 1010.8 -9.9 -9.999 -99.9 -99.99 -9.99
2019/06/24 19:18 PDT    5.62   6.05    5  273    8  61.7  68.5 1010.7 -9.9 -9.999 -99.9 -99.99 -9.99
2019/06/24 19:24 PDT    5.60   6.03    5  256    8  61.3  68.7 1010.8 -9.9 -9.999 -99.9 -99.99 -9.99
2019/06/24 19:30 PDT    5.57   6.03    7  254    8  60.8  68.5 1010.8 -9.9 -9.999 -99.9 -99.99 -9.99
2019/06/24 19:36 PDT    5.53   5.98    6  254    8  60.6  68.7 1010.8 -9.9 -9.999 -99.9 -99.99 -9.99
2019/06/24 19:42 PDT    5.50   5.91    7  254    9  60.1  68.9 1010.8 -9.9 -9.999 -99.9 -99.99 -9.99
2019/06/24 19:48 PDT    5.45   5.91    8  252   10  60.1  68.9 1010.8 -9.9 -9.999 -99.9 -99.99 -9.99
2019/06/24 19:54 PDT    5.41   5.88    8  255   10  60.1  68.9 1010.8 -9.9 -9.999 -99.9 -99.99 -9.99
2019/06/24 20:00 PDT    5.36   5.84    8  255   10  60.3  68.9 1011.0 -9.9 -9.999 -99.9 -99.99 -9.99
2019/06/24 20:06 PDT    5.30   5.79    9  248   11  59.9  68.9 1010.9 -9.9 -9.999 -99.9 -99.99 -9.99
2019/06/24 20:12 PDT    5.24   5.77   11  254   13  59.7  68.9 1011.1 -9.9 -9.999 -99.9 -99.99 -9.99
2019/06/24 20:18 PDT    5.18   5.72   10  251   12  59.9  68.9 1011.0 -9.9 -9.999 -99.9 -99.99 -9.99
2019/06/24 20:24 PDT    5.12   5.64    7  264   12  59.4  68.9 1010.9 -9.9 -9.999 -99.9 -99.99 -9.99
2019/06/24 20:30 PDT    5.05   5.57    7  262   11  59.5  69.1 1010.9 -9.9 -9.999 -99.9 -99.99 -9.99
2019/06/24 20:36 PDT    4.98   5.52    6  277    8  59.4  69.1 1010.8 -9.9 -9.999 -99.9 -99.99 -9.99
2019/06/24 20:42 PDT    4.90   5.47    6  241    8  59.2  69.1 1010.9 -9.9 -9.999 -99.9 -99.99 -9.99
2019/06/24 20:48 PDT    4.83   5.38    4  278    8  59.4  68.9 1010.7 -9.9 -9.999 -99.9 -99.99 -9.99
2019/06/24 20:54 PDT    4.75   5.28    6  255    7  59.5  69.1 1010.8 -9.9 -9.999 -99.9 -99.99 -9.99
2019/06/24 21:00 PDT    4.67   5.22    5  277    8  59.7  69.3 1010.7 -9.9 -9.999 -99.9 -99.99 -9.99
2019/06/24 21:06 PDT    4.60   5.15    6  257    9  59.9  69.3 1010.8 -9.9 -9.999 -99.9 -99.99 -9.99
2019/06/24 21:12 PDT    4.52   5.08    7  248    9  59.5  69.4 1010.9 -9.9 -9.999 -99.9 -99.99 -9.99
2019/06/24 21:18 PDT    4.43   4.98    4  286    7  59.4  69.4 1010.5 -9.9 -9.999 -99.9 -99.99 -9.99
2019/06/24 21:24 PDT    4.35   4.89    2  253    5  59.4  69.6 1010.9 -9.9 -9.999 -99.9 -99.99 -9.99
2019/06/24 21:30 PDT    4.27   4.80    4  263    7  59.4  69.6 1010.8 -9.9 -9.999 -99.9 -99.99 -9.99
2019/06/24 21:36 PDT    4.19   4.69    5  262    7  59.7  69.6 1010.7 -9.9 -9.999 -99.9 -99.99 -9.99
2019/06/24 21:42 PDT    4.11   4.65    7  238    9  59.5  69.6 1011.1 -9.9 -9.999 -99.9 -99.99 -9.99
2019/06/24 21:48 PDT    4.03   4.62    7  240   10  59.2  69.8 1010.9 -9.9 -9.999 -99.9 -99.99 -9.99
2019/06/24 21:54 PDT    3.95   4.52    7  251    8  59.2  69.8 1011.0 -9.9 -9.999 -99.9 -99.99 -9.99
2019/06/24 22:00 PDT    3.87   4.44    7  259   10  59.7  69.8 1011.2 -9.9 -9.999 -99.9 -99.99 -9.99
2019/06/24 22:06 PDT    3.79   4.36   10  254   13  59.5  69.8 1011.2 -9.9 -9.999 -99.9 -99.99 -9.99
2019/06/24 22:12 PDT    3.72   4.27   10  261   13  59.5  69.8 1011.5 -9.9 -9.999 -99.9 -99.99 -9.99
2019/06/24 22:18 PDT    3.64   4.22    9  261   12  59.5  69.8 1011.3 -9.9 -9.999 -99.9 -99.99 -9.99
2019/06/24 22:24 PDT    3.57   4.14   10  262   13  59.4  69.8 1011.4 -9.9 -9.999 -99.9 -99.99 -9.99
2019/06/24 22:30 PDT    3.50   4.06    8  259   12  59.5  69.8 1011.3 -9.9 -9.999 -99.9 -99.99 -9.99
2019/06/24 22:36 PDT    3.43   3.97    8  264   11  59.5  69.6 1011.3 -9.9 -9.999 -99.9 -99.99 -9.99
2019/06/24 22:42 PDT    3.36   3.91    7  268   11  59.5  69.6 1011.3 -9.9 -9.999 -99.9 -99.99 -9.99
2019/06/24 22:48 PDT    3.29   3.82    8  259   11  59.4  69.6 1011.2 -9.9 -9.999 -99.9 -99.99 -9.99
2019/06/24 22:54 PDT    3.23   3.76    7  250   10  59.7  69.8 1011.1 -9.9 -9.999 -99.9 -99.99 -9.99
2019/06/24 23:00 PDT    3.16   3.71    9  252   11  59.2  69.8 1011.2 -9.9 -9.999 -99.9 -99.99 -9.99
2019/06/24 23:06 PDT    3.10   3.61    8  240    9  59.0  69.8 1011.1 -9.9 -9.999 -99.9 -99.99 -9.99
2019/06/24 23:12 PDT    3.04   3.60    8  251    9  59.2  69.8 1011.0 -9.9 -9.999 -99.9 -99.99 -9.99
2019/06/24 23:18 PDT    2.99   3.55    7  260    9  59.5  69.8 1010.9 -9.9 -9.999 -99.9 -99.99 -9.99
2019/06/24 23:24 PDT    2.93   3.49    7  259   10  59.7  70.0 1011.0 -9.9 -9.999 -99.9 -99.99 -9.99
2019/06/24 23:30 PDT    2.88   3.41    8  260   11  59.7  70.0 1011.0 -9.9 -9.999 -99.9 -99.99 -9.99
2019/06/24 23:36 PDT    2.83   3.36    9  259   10  59.7  70.0 1011.0 -9.9 -9.999 -99.9 -99.99 -9.99
2019/06/24 23:42 PDT    2.79   3.33    9  259   11  59.0  70.0 1011.0 -9.9 -9.999 -99.9 -99.99 -9.99
2019/06/24 23:48 PDT    2.74   3.30    8  256   11  59.2  70.0 1010.9 -9.9 -9.999 -99.9 -99.99 -9.99
2019/06/24 23:54 PDT    2.70   3.27    7  279   10  59.5  70.0 1010.9 -9.9 -9.999 -99.9 -99.99 -9.99
2019/06/25 00:00 PDT    2.67   3.25    7  276    9  59.5  70.0 1010.9 -9.9 -9.999 -99.9 -99.99 -9.99
2019/06/25 00:06 PDT    2.63   3.18    6  280    9  59.5  70.0 1010.9 -9.9 -9.999 -99.9 -99.99 -9.99
2019/06/25 00:12 PDT    2.60   3.12    9  259   11  59.7  70.0 1010.9 -9.9 -9.999 -99.9 -99.99 -9.99
2019/06/25 00:18 PDT    2.57 -99.99 -999 -999 -999 -99.9 -99.9 -999.9 -9.9 -9.999 -99.9 -99.99 -9.99
2019/06/25 00:24 PDT    2.55 -99.99 -999 -999 -999 -99.9 -99.9 -999.9 -9.9 -9.999 -99.9 -99.99 -9.99
2019/06/25 00:30 PDT    2.53 -99.99 -999 -999 -999 -99.9 -99.9 -999.9 -9.9 -9.999 -99.9 -99.99 -9.99
2019/06/25 00:36 PDT    2.51 -99.99 -999 -999 -999 -99.9 -99.9 -999.9 -9.9 -9.999 -99.9 -99.99 -9.99
2019/06/25 00:42 PDT    2.50 -99.99 -999 -999 -999 -99.9 -99.9 -999.9 -9.9 -9.999 -99.9 -99.99 -9.99
2019/06/25 00:48 PDT    2.49 -99.99 -999 -999 -999 -99.9 -99.9 -999.9 -9.9 -9.999 -99.9 -99.99 -9.99
2019/06/25 00:54 PDT    2.48 -99.99 -999 -999 -999 -99.9 -99.9 -999.9 -9.9 -9.999 -99.9 -99.99 -9.99
2019/06/25 01:00 PDT    2.48 -99.99 -999 -999 -999 -99.9 -99.9 -999.9 -9.9 -9.999 -99.9 -99.99 -9.99
2019/06/25 01:06 PDT    2.48 -99.99 -999 -999 -999 -99.9 -99.9 -999.9 -9.9 -9.999 -99.9 -99.99 -9.99
2019/06/25 01:12 PDT    2.49 -99.99 -999 -999 -999 -99.9 -99.9 -999.9 -9.9 -9.999 -99.9 -99.99 -9.99
2019/06/25 01:18 PDT    2.50 -99.99 -999 -999 -999 -99.9 -99.9 -999.9 -9.9 -9.999 -99.9 -99.99 -9.99
2019/06/25 01:24 PDT    2.51 -99.99 -999 -999 -999 -99.9 -99.9 -999.9 -9.9 -9.999 -99.9 -99.99 -9.99
2019/06/25 01:30 PDT    2.53 -99.99 -999 -999 -999 -99.9 -99.9 -999.9 -9.9 -9.999 -99.9 -99.99 -9.99
2019/06/25 01:36 PDT    2.55 -99.99 -999 -999 -999 -99.9 -99.9 -999.9 -9.9 -9.999 -99.9 -99.99 -9.99
2019/06/25 01:42 PDT    2.57 -99.99 -999 -999 -999 -99.9 -99.9 -999.9 -9.9 -9.999 -99.9 -99.99 -9.99
2019/06/25 01:48 PDT    2.60 -99.99 -999 -999 -999 -99.9 -99.9 -999.9 -9.9 -9.999 -99.9 -99.99 -9.99
2019/06/25 01:54 PDT    2.63 -99.99 -999 -999 -999 -99.9 -99.9 -999.9 -9.9 -9.999 -99.9 -99.99 -9.99
2019/06/25 02:00 PDT    2.67 -99.99 -999 -999 -999 -99.9 -99.9 -999.9 -9.9 -9.999 -99.9 -99.99 -9.99
2019/06/25 02:06 PDT    2.71 -99.99 -999 -999 -999 -99.9 -99.9 -999.9 -9.9 -9.999 -99.9 -99.99 -9.99
2019/06/25 02:12 PDT    2.75 -99.99 -999 -999 -999 -99.9 -99.9 -999.9 -9.9 -9.999 -99.9 -99.99 -9.99
2019/06/25 02:18 PDT    2.79 -99.99 -999 -999 -999 -99.9 -99.9 -999.9 -9.9 -9.999 -99.9 -99.99 -9.99
2019/06/25 02:24 PDT    2.84 -99.99 -999 -999 -999 -99.9 -99.9 -999.9 -9.9 -9.999 -99.9 -99.99 -9.99
2019/06/25 02:30 PDT    2.89 -99.99 -999 -999 -999 -99.9 -99.9 -999.9 -9.9 -9.999 -99.9 -99.99 -9.99
2019/06/25 02:36 PDT    2.94 -99.99 -999 -999 -999 -99.9 -99.9 -999.9 -9.9 -9.999 -99.9 -99.99 -9.99
2019/06/25 02:42 PDT    3.00 -99.99 -999 -999 -999 -99.9 -99.9 -999.9 -9.9 -9.999 -99.9 -99.99 -9.99
2019/06/25 02:48 PDT    3.05 -99.99 -999 -999 -999 -99.9 -99.9 -999.9 -9.9 -9.999 -99.9 -99.99 -9.99
2019/06/25 02:54 PDT    3.11 -99.99 -999 -999 -999 -99.9 -99.9 -999.9 -9.9 -9.999 -99.9 -99.99 -9.99
2019/06/25 03:00 PDT    3.17 -99.99 -999 -999 -999 -99.9 -99.9 -999.9 -9.9 -9.999 -99.9 -99.99 -9.99
2019/06/25 03:06 PDT    3.22 -99.99 -999 -999 -999 -99.9 -99.9 -999.9 -9.9 -9.999 -99.9 -99.99 -9.99
2019/06/25 03:12 PDT    3.28 -99.99 -999 -999 -999 -99.9 -99.9 -999.9 -9.9 -9.999 -99.9 -99.99 -9.99
2019/06/25 03:18 PDT    3.34 -99.99 -999 -999 -999 -99.9 -99.9 -999.9 -9.9 -9.999 -99.9 -99.99 -9.99
2019/06/25 03:24 PDT    3.40 -99.99 -999 -999 -999 -99.9 -99.9 -999.9 -9.9 -9.999 -99.9 -99.99 -9.99
2019/06/25 03:30 PDT    3.46 -99.99 -999 -999 -999 -99.9 -99.9 -999.9 -9.9 -9.999 -99.9 -99.99 -9.99
2019/06/25 03:36 PDT    3.52 -99.99 -999 -999 -999 -99.9 -99.9 -999.9 -9.9 -9.999 -99.9 -99.99 -9.99
2019/06/25 03:42 PDT    3.58 -99.99 -999 -999 -999 -99.9 -99.9 -999.9 -9.9 -9.999 -99.9 -99.99 -9.99
2019/06/25 03:48 PDT    3.64 -99.99 -999 -999 -999 -99.9 -99.9 -999.9 -9.9 -9.999 -99.9 -99.99 -9.99
2019/06/25 03:54 PDT    3.70 -99.99 -999 -999 -999 -99.9 -99.9 -999.9 -9.9 -9.999 -99.9 -99.99 -9.99
2019/06/25 04:00 PDT    3.75 -99.99 -999 -999 -999 -99.9 -99.9 -999.9 -9.9 -9.999 -99.9 -99.99 -9.99
2019/06/25 04:06 PDT    3.81 -99.99 -999 -999 -999 -99.9 -99.9 -999.9 -9.9 -9.999 -99.9 -99.99 -9.99
2019/06/25 04:12 PDT    3.86 -99.99 -999 -999 -999 -99.9 -99.9 -999.9 -9.9 -9.999 -99.9 -99.99 -9.99
2019/06/25 04:18 PDT    3.92 -99.99 -999 -999 -999 -99.9 -99.9 -999.9 -9.9 -9.999 -99.9 -99.99 -9.99
2019/06/25 04:24 PDT    3.97 -99.99 -999 -999 -999 -99.9 -99.9 -999.9 -9.9 -9.999 -99.9 -99.99 -9.99
2019/06/25 04:30 PDT    4.01 -99.99 -999 -999 -999 -99.9 -99.9 -999.9 -9.9 -9.999 -99.9 -99.99 -9.99
2019/06/25 04:36 PDT    4.06 -99.99 -999 -999 -999 -99.9 -99.9 -999.9 -9.9 -9.999 -99.9 -99.99 -9.99
2019/06/25 04:42 PDT    4.11 -99.99 -999 -999 -999 -99.9 -99.9 -999.9 -9.9 -9.999 -99.9 -99.99 -9.99
2019/06/25 04:48 PDT    4.15 -99.99 -999 -999 -999 -99.9 -99.9 -999.9 -9.9 -9.999 -99.9 -99.99 -9.99
2019/06/25 04:54 PDT    4.19 -99.99 -999 -999 -999 -99.9 -99.9 -999.9 -9.9 -9.999 -99.9 -99.99 -9.99
2019/06/25 05:00 PDT    4.23 -99.99 -999 -999 -999 -99.9 -99.9 -999.9 -9.9 -9.999 -99.9 -99.99 -9.99
2019/06/25 05:06 PDT    4.26 -99.99 -999 -999 -999 -99.9 -99.9 -999.9 -9.9 -9.999 -99.9 -99.99 -9.99
2019/06/25 05:12 PDT    4.30 -99.99 -999 -999 -999 -99.9 -99.9 -999.9 -9.9 -9.999 -99.9 -99.99 -9.99
2019/06/25 05:18 PDT    4.33 -99.99 -999 -999 -999 -99.9 -99.9 -999.9 -9.9 -9.999 -99.9 -99.99 -9.99
2019/06/25 05:24 PDT    4.36 -99.99 -999 -999 -999 -99.9 -99.9 -999.9 -9.9 -9.999 -99.9 -99.99 -9.99
2019/06/25 05:30 PDT    4.38 -99.99 -999 -999 -999 -99.9 -99.9 -999.9 -9.9 -9.999 -99.9 -99.99 -9.99
2019/06/25 05:36 PDT    4.40 -99.99 -999 -999 -999 -99.9 -99.9 -999.9 -9.9 -9.999 -99.9 -99.99 -9.99
2019/06/25 05:42 PDT    4.42 -99.99 -999 -999 -999 -99.9 -99.9 -999.9 -9.9 -9.999 -99.9 -99.99 -9.99
2019/06/25 05:48 PDT    4.44 -99.99 -999 -999 -999 -99.9 -99.9 -999.9 -9.9 -9.999 -99.9 -99.99 -9.99
2019/06/25 05:54 PDT    4.46 -99.99 -999 -999 -999 -99.9 -99.9 -999.9 -9.9 -9.999 -99.9 -99.99 -9.99
2019/06/25 06:00 PDT    4.47 -99.99 -999 -999 -999 -99.9 -99.9 -999.9 -9.9 -9.999 -99.9 -99.99 -9.99
2019/06/25 06:06 PDT    4.47 -99.99 -999 -999 -999 -99.9 -99.9 -999.9 -9.9 -9.999 -99.9 -99.99 -9.99
2019/06/25 06:12 PDT    4.48 -99.99 -999 -999 -999 -99.9 -99.9 -999.9 -9.9 -9.999 -99.9 -99.99 -9.99
2019/06/25 06:18 PDT    4.48 -99.99 -999 -999 -999 -99.9 -99.9 -999.9 -9.9 -9.999 -99.9 -99.99 -9.99
2019/06/25 06:24 PDT    4.48 -99.99 -999 -999 -999 -99.9 -99.9 -999.9 -9.9 -9.999 -99.9 -99.99 -9.99
2019/06/25 06:30 PDT    4.47 -99.99 -999 -999 -999 -99.9 -99.9 -999.9 -9.9 -9.999 -99.9 -99.99 -9.99

Revised: 08/08/2018
NOAA / National Ocean Service
Web site owner: Center for Operational Oceanographic Products and Services